JNA507 RKSS-RKPC
Flight info
| Callsign | JNA507 |
|---|---|
| Flight time | 0h 46m |
| Altitude | 24000 |
| Route | BULTI2T BULTI Y711 DOTOL DOTOL2M |
| Aircraft | B738/M-SDE2E3FGHIRWXY/LB1 |
Departure
| Time | 2026-04-29 14:23 |
|---|---|
| Airport | Gimpo International Airport (RKSS) |
Arrival
| Time | 2026-04-29 15:10 |
|---|---|
| Airport | Jeju International Airport (RKPC) |
| Time | Latitude | Longitude | Altitude | Speed | Heading |
|---|---|---|---|---|---|
| 2026-04-29 14:02 | 37.55782 | 126.80250 | 66 ft | 0 kts | 49° |
| 2026-04-29 14:16 | 37.55781 | 126.80249 | 66 ft | 2 kts | 49° |
| 2026-04-29 14:17 | 37.55764 | 126.80227 | 63 ft | 4 kts | 46° |
| 2026-04-29 14:17 | 37.55747 | 126.80201 | 57 ft | 4 kts | 64° |
| 2026-04-29 14:17 | 37.55740 | 126.80169 | 56 ft | 4 kts | 98° |
| 2026-04-29 14:17 | 37.55747 | 126.80148 | 60 ft | 1 kts | 135° |
| 2026-04-29 14:18 | 37.55749 | 126.80145 | 60 ft | 0 kts | 135° |
| 2026-04-29 14:19 | 37.55733 | 126.80166 | 59 ft | 11 kts | 135° |
| 2026-04-29 14:19 | 37.55684 | 126.80227 | 63 ft | 10 kts | 134° |
| 2026-04-29 14:20 | 37.55626 | 126.80301 | 63 ft | 13 kts | 136° |
| 2026-04-29 14:20 | 37.55549 | 126.80278 | 65 ft | 13 kts | 226° |
| 2026-04-29 14:20 | 37.55486 | 126.80196 | 59 ft | 14 kts | 225° |
| 2026-04-29 14:20 | 37.55412 | 126.80209 | 63 ft | 17 kts | 132° |
| 2026-04-29 14:21 | 37.55327 | 126.80319 | 58 ft | 19 kts | 136° |
| 2026-04-29 14:21 | 37.55198 | 126.80479 | 63 ft | 27 kts | 135° |
| 2026-04-29 14:21 | 37.55067 | 126.80641 | 61 ft | 25 kts | 135° |
| 2026-04-29 14:21 | 37.54948 | 126.80791 | 60 ft | 23 kts | 135° |
| 2026-04-29 14:22 | 37.54836 | 126.80772 | 56 ft | 19 kts | 226° |
| 2026-04-29 14:22 | 37.54842 | 126.80629 | 53 ft | 14 kts | 314° |
| 2026-04-29 14:22 | 37.54849 | 126.80621 | 57 ft | 3 kts | 315° |
| 2026-04-29 14:22 | 37.54943 | 126.80502 | 57 ft | 45 kts | 315° |
| 2026-04-29 14:23 | 37.55334 | 126.80012 | 58 ft | 110 kts | 314° |
| 2026-04-29 14:23 | 37.55990 | 126.79180 | 104 ft | 155 kts | 314° |
| 2026-04-29 14:23 | 37.56808 | 126.78187 | 522 ft | 170 kts | 317° |
| 2026-04-29 14:23 | 37.57692 | 126.77111 | 1052 ft | 181 kts | 314° |
| 2026-04-29 14:24 | 37.58550 | 126.75941 | 1754 ft | 182 kts | 312° |
| 2026-04-29 14:24 | 37.59458 | 126.74685 | 2042 ft | 206 kts | 313° |
| 2026-04-29 14:24 | 37.60478 | 126.73291 | 2231 ft | 225 kts | 314° |
| 2026-04-29 14:24 | 37.61551 | 126.71783 | 2429 ft | 244 kts | 307° |
| 2026-04-29 14:25 | 37.62182 | 126.69730 | 2833 ft | 260 kts | 276° |
| 2026-04-29 14:25 | 37.61904 | 126.67478 | 3571 ft | 263 kts | 246° |
| 2026-04-29 14:25 | 37.60804 | 126.65639 | 4322 ft | 265 kts | 218° |
| 2026-04-29 14:25 | 37.59158 | 126.64684 | 5030 ft | 268 kts | 189° |
| 2026-04-29 14:26 | 37.57293 | 126.64691 | 5775 ft | 268 kts | 172° |
| 2026-04-29 14:26 | 37.55433 | 126.65048 | 6543 ft | 270 kts | 170° |
| 2026-04-29 14:26 | 37.53591 | 126.65456 | 7236 ft | 273 kts | 169° |
| 2026-04-29 14:26 | 37.51694 | 126.65885 | 7938 ft | 277 kts | 169° |
| 2026-04-29 14:27 | 37.49786 | 126.66312 | 8682 ft | 280 kts | 169° |
| 2026-04-29 14:27 | 37.47849 | 126.66739 | 9438 ft | 284 kts | 169° |
| 2026-04-29 14:27 | 37.45890 | 126.67165 | 10189 ft | 288 kts | 169° |
| 2026-04-29 14:28 | 37.41677 | 126.68070 | 10667 ft | 331 kts | 169° |
| 2026-04-29 14:28 | 37.39330 | 126.68569 | 10846 ft | 352 kts | 169° |
| 2026-04-29 14:28 | 37.36866 | 126.69088 | 11285 ft | 362 kts | 169° |
| 2026-04-29 14:28 | 37.34389 | 126.69608 | 11941 ft | 365 kts | 169° |
| 2026-04-29 14:29 | 37.31876 | 126.70134 | 12683 ft | 367 kts | 169° |
| 2026-04-29 14:29 | 37.29347 | 126.70665 | 13416 ft | 370 kts | 169° |
| 2026-04-29 14:29 | 37.26791 | 126.71200 | 14114 ft | 374 kts | 169° |
| 2026-04-29 14:29 | 37.24208 | 126.71740 | 14755 ft | 378 kts | 170° |
| 2026-04-29 14:30 | 37.21594 | 126.72286 | 15410 ft | 382 kts | 171° |
| 2026-04-29 14:30 | 37.18952 | 126.72836 | 16071 ft | 386 kts | 172° |
| 2026-04-29 14:30 | 37.16281 | 126.73392 | 16694 ft | 390 kts | 172° |
| 2026-04-29 14:30 | 37.13618 | 126.73946 | 17297 ft | 394 kts | 173° |
| 2026-04-29 14:31 | 37.10893 | 126.74512 | 17898 ft | 398 kts | 173° |
| 2026-04-29 14:31 | 37.08138 | 126.75084 | 18458 ft | 403 kts | 174° |
| 2026-04-29 14:31 | 37.05355 | 126.75661 | 18901 ft | 408 kts | 174° |
| 2026-04-29 14:31 | 37.02546 | 126.76244 | 19431 ft | 410 kts | 174° |
| 2026-04-29 14:32 | 36.99725 | 126.76830 | 19967 ft | 412 kts | 174° |
| 2026-04-29 14:32 | 36.96886 | 126.77418 | 20480 ft | 414 kts | 174° |
| 2026-04-29 14:32 | 36.94063 | 126.78003 | 20974 ft | 417 kts | 175° |
| 2026-04-29 14:32 | 36.91186 | 126.78599 | 21450 ft | 420 kts | 175° |
| 2026-04-29 14:33 | 36.88289 | 126.79198 | 21956 ft | 423 kts | 175° |
| 2026-04-29 14:33 | 36.85376 | 126.79800 | 22428 ft | 425 kts | 175° |
| 2026-04-29 14:33 | 36.82435 | 126.80408 | 22875 ft | 428 kts | 175° |
| 2026-04-29 14:33 | 36.79478 | 126.81017 | 23283 ft | 432 kts | 175° |
| 2026-04-29 14:34 | 36.76495 | 126.81630 | 23645 ft | 436 kts | 176° |
| 2026-04-29 14:34 | 36.73546 | 126.82237 | 24055 ft | 435 kts | 176° |
| 2026-04-29 14:34 | 36.70533 | 126.82704 | 24097 ft | 435 kts | 182° |
| 2026-04-29 14:34 | 36.67500 | 126.82828 | 24115 ft | 437 kts | 184° |
| 2026-04-29 14:35 | 36.64436 | 126.82860 | 24121 ft | 439 kts | 184° |
| 2026-04-29 14:35 | 36.61388 | 126.82905 | 24112 ft | 437 kts | 184° |
| 2026-04-29 14:35 | 36.58349 | 126.82992 | 24106 ft | 437 kts | 184° |
| 2026-04-29 14:35 | 36.55307 | 126.83101 | 24095 ft | 435 kts | 183° |
| 2026-04-29 14:36 | 36.52285 | 126.83223 | 24105 ft | 433 kts | 183° |
| 2026-04-29 14:36 | 36.49319 | 126.83343 | 24126 ft | 431 kts | 183° |
| 2026-04-29 14:36 | 36.46313 | 126.83473 | 24116 ft | 432 kts | 183° |
| 2026-04-29 14:36 | 36.43312 | 126.83604 | 24133 ft | 432 kts | 183° |
| 2026-04-29 14:37 | 36.40293 | 126.83731 | 24131 ft | 433 kts | 183° |
| 2026-04-29 14:37 | 36.37311 | 126.83757 | 24120 ft | 431 kts | 187° |
| 2026-04-29 14:37 | 36.34325 | 126.83461 | 24107 ft | 430 kts | 190° |
| 2026-04-29 14:37 | 36.31350 | 126.83086 | 24115 ft | 429 kts | 190° |
| 2026-04-29 14:38 | 36.28374 | 126.82706 | 24130 ft | 430 kts | 190° |
| 2026-04-29 14:38 | 36.25395 | 126.82346 | 24127 ft | 430 kts | 190° |
| 2026-04-29 14:38 | 36.22408 | 126.82004 | 24120 ft | 430 kts | 190° |
| 2026-04-29 14:38 | 36.19416 | 126.81673 | 24128 ft | 430 kts | 189° |
| 2026-04-29 14:39 | 36.16435 | 126.81346 | 24113 ft | 430 kts | 190° |
| 2026-04-29 14:39 | 36.13496 | 126.81025 | 24124 ft | 429 kts | 191° |
| 2026-04-29 14:39 | 36.10519 | 126.80700 | 24133 ft | 428 kts | 191° |
| 2026-04-29 14:39 | 36.07546 | 126.80377 | 24138 ft | 427 kts | 191° |
| 2026-04-29 14:40 | 36.04589 | 126.80055 | 24144 ft | 426 kts | 191° |
| 2026-04-29 14:40 | 36.01635 | 126.79733 | 24142 ft | 425 kts | 191° |
| 2026-04-29 14:40 | 35.98721 | 126.79416 | 24144 ft | 425 kts | 191° |
| 2026-04-29 14:40 | 35.95781 | 126.79097 | 24137 ft | 424 kts | 191° |
| 2026-04-29 14:41 | 35.92847 | 126.78778 | 24137 ft | 423 kts | 191° |
| 2026-04-29 14:41 | 35.89914 | 126.78459 | 24140 ft | 422 kts | 191° |
| 2026-04-29 14:41 | 35.86982 | 126.78142 | 24144 ft | 422 kts | 191° |
| 2026-04-29 14:41 | 35.84059 | 126.77827 | 24144 ft | 421 kts | 191° |
| 2026-04-29 14:42 | 35.81130 | 126.77511 | 24147 ft | 421 kts | 191° |
| 2026-04-29 14:42 | 35.78207 | 126.77196 | 24140 ft | 421 kts | 191° |
| 2026-04-29 14:42 | 35.75287 | 126.76883 | 24144 ft | 421 kts | 191° |
| 2026-04-29 14:42 | 35.72364 | 126.76568 | 24146 ft | 421 kts | 191° |
| 2026-04-29 14:43 | 35.69473 | 126.76257 | 24145 ft | 421 kts | 191° |
| 2026-04-29 14:43 | 35.66549 | 126.75943 | 24147 ft | 421 kts | 191° |
| 2026-04-29 14:43 | 35.63624 | 126.75628 | 24149 ft | 421 kts | 191° |
| 2026-04-29 14:43 | 35.60706 | 126.75315 | 24148 ft | 421 kts | 191° |
| 2026-04-29 14:44 | 35.57815 | 126.75005 | 24131 ft | 421 kts | 192° |
| 2026-04-29 14:44 | 35.54901 | 126.74688 | 24144 ft | 421 kts | 191° |
| 2026-04-29 14:44 | 35.51980 | 126.74355 | 24154 ft | 421 kts | 191° |
| 2026-04-29 14:44 | 35.49060 | 126.74056 | 24153 ft | 421 kts | 191° |
| 2026-04-29 14:45 | 35.46141 | 126.73757 | 24147 ft | 421 kts | 191° |
| 2026-04-29 14:45 | 35.43222 | 126.73451 | 24158 ft | 421 kts | 191° |
| 2026-04-29 14:45 | 35.40305 | 126.73142 | 24150 ft | 420 kts | 191° |
| 2026-04-29 14:45 | 35.37396 | 126.72833 | 24143 ft | 418 kts | 192° |
| 2026-04-29 14:46 | 35.34495 | 126.72521 | 24132 ft | 418 kts | 192° |
| 2026-04-29 14:46 | 35.31596 | 126.72216 | 24138 ft | 417 kts | 192° |
| 2026-04-29 14:46 | 35.28701 | 126.71912 | 24154 ft | 417 kts | 192° |
| 2026-04-29 14:46 | 35.25791 | 126.71604 | 24138 ft | 418 kts | 192° |
| 2026-04-29 14:47 | 35.22931 | 126.71300 | 24143 ft | 418 kts | 192° |
| 2026-04-29 14:47 | 35.20020 | 126.70993 | 24129 ft | 419 kts | 192° |
| 2026-04-29 14:47 | 35.17110 | 126.70686 | 24140 ft | 420 kts | 192° |
| 2026-04-29 14:47 | 35.15186 | 126.70483 | 24133 ft | 420 kts | 192° |
| 2026-04-29 14:48 | 35.11271 | 126.70070 | 24136 ft | 421 kts | 192° |
| 2026-04-29 14:48 | 35.08354 | 126.69762 | 24141 ft | 421 kts | 192° |
| 2026-04-29 14:48 | 35.05435 | 126.69453 | 24134 ft | 421 kts | 192° |
| 2026-04-29 14:48 | 35.02553 | 126.69147 | 24129 ft | 421 kts | 192° |
| 2026-04-29 14:49 | 34.99633 | 126.68839 | 24148 ft | 421 kts | 192° |
| 2026-04-29 14:49 | 34.96708 | 126.68530 | 24149 ft | 420 kts | 192° |
| 2026-04-29 14:49 | 34.93794 | 126.68223 | 24147 ft | 420 kts | 192° |
| 2026-04-29 14:49 | 34.90879 | 126.67915 | 24148 ft | 420 kts | 192° |
| 2026-04-29 14:50 | 34.87967 | 126.67608 | 24144 ft | 419 kts | 192° |
| 2026-04-29 14:50 | 34.85052 | 126.67301 | 24148 ft | 419 kts | 192° |
| 2026-04-29 14:50 | 34.82147 | 126.66995 | 24147 ft | 419 kts | 192° |
| 2026-04-29 14:50 | 34.79271 | 126.66693 | 24134 ft | 419 kts | 192° |
| 2026-04-29 14:51 | 34.76354 | 126.66387 | 24149 ft | 414 kts | 192° |
| 2026-04-29 14:51 | 34.73517 | 126.66094 | 23868 ft | 406 kts | 192° |
| 2026-04-29 14:51 | 34.70735 | 126.65806 | 23361 ft | 398 kts | 192° |
| 2026-04-29 14:51 | 34.68024 | 126.65523 | 22794 ft | 392 kts | 192° |
| 2026-04-29 14:52 | 34.65313 | 126.65237 | 22207 ft | 388 kts | 191° |
| 2026-04-29 14:52 | 34.62628 | 126.64958 | 21633 ft | 384 kts | 191° |
| 2026-04-29 14:52 | 34.59964 | 126.64675 | 21046 ft | 381 kts | 192° |
| 2026-04-29 14:52 | 34.57369 | 126.64400 | 20500 ft | 377 kts | 191° |
| 2026-04-29 14:53 | 34.54754 | 126.64164 | 20021 ft | 374 kts | 188° |
| 2026-04-29 14:53 | 34.52102 | 126.64353 | 19122 ft | 388 kts | 180° |
| 2026-04-29 14:53 | 34.49395 | 126.64741 | 18314 ft | 393 kts | 179° |
| 2026-04-29 14:53 | 34.46712 | 126.65132 | 17656 ft | 390 kts | 180° |
| 2026-04-29 14:54 | 34.44030 | 126.65591 | 17201 ft | 388 kts | 174° |
| 2026-04-29 14:54 | 34.42277 | 126.65993 | 16783 ft | 385 kts | 176° |
| 2026-04-29 14:54 | 34.38747 | 126.66480 | 15870 ft | 379 kts | 180° |
| 2026-04-29 14:54 | 34.37006 | 126.66679 | 15541 ft | 376 kts | 180° |
| 2026-04-29 14:55 | 34.33583 | 126.67066 | 14890 ft | 370 kts | 179° |
| 2026-04-29 14:55 | 34.31881 | 126.67266 | 14493 ft | 370 kts | 179° |
| 2026-04-29 14:55 | 34.29310 | 126.67578 | 13918 ft | 369 kts | 178° |
| 2026-04-29 14:55 | 34.26763 | 126.67901 | 13343 ft | 366 kts | 178° |
| 2026-04-29 14:56 | 34.24240 | 126.68230 | 12833 ft | 362 kts | 177° |
| 2026-04-29 14:56 | 34.21743 | 126.68560 | 12317 ft | 358 kts | 176° |
| 2026-04-29 14:56 | 34.19312 | 126.68882 | 11795 ft | 355 kts | 176° |
| 2026-04-29 14:56 | 34.16869 | 126.69206 | 11315 ft | 350 kts | 177° |
| 2026-04-29 14:57 | 34.14494 | 126.69525 | 11192 ft | 336 kts | 176° |
| 2026-04-29 14:57 | 34.12214 | 126.69832 | 11094 ft | 322 kts | 177° |
| 2026-04-29 14:57 | 34.10022 | 126.70125 | 10969 ft | 311 kts | 177° |
| 2026-04-29 14:57 | 34.07908 | 126.70407 | 10886 ft | 299 kts | 177° |
| 2026-04-29 14:58 | 34.05881 | 126.70677 | 10801 ft | 288 kts | 177° |
| 2026-04-29 14:58 | 34.03918 | 126.70937 | 10691 ft | 279 kts | 177° |
| 2026-04-29 14:58 | 34.02018 | 126.71189 | 10558 ft | 271 kts | 176° |
| 2026-04-29 14:58 | 34.00181 | 126.71431 | 10345 ft | 267 kts | 176° |
| 2026-04-29 14:59 | 33.98324 | 126.71676 | 10053 ft | 266 kts | 176° |
| 2026-04-29 14:59 | 33.96479 | 126.71918 | 9731 ft | 266 kts | 176° |
| 2026-04-29 14:59 | 33.94640 | 126.72161 | 9383 ft | 266 kts | 176° |
| 2026-04-29 14:59 | 33.92824 | 126.72401 | 9063 ft | 265 kts | 176° |
| 2026-04-29 15:00 | 33.90988 | 126.72644 | 8775 ft | 264 kts | 176° |
| 2026-04-29 15:00 | 33.89163 | 126.72881 | 8476 ft | 263 kts | 175° |
| 2026-04-29 15:00 | 33.87343 | 126.73122 | 8162 ft | 263 kts | 175° |
| 2026-04-29 15:00 | 33.85521 | 126.73364 | 7881 ft | 262 kts | 175° |
| 2026-04-29 15:01 | 33.83708 | 126.73605 | 7581 ft | 262 kts | 175° |
| 2026-04-29 15:01 | 33.81903 | 126.73843 | 7319 ft | 260 kts | 174° |
| 2026-04-29 15:01 | 33.80129 | 126.74078 | 7018 ft | 259 kts | 174° |
| 2026-04-29 15:01 | 33.78364 | 126.74311 | 6809 ft | 246 kts | 174° |
| 2026-04-29 15:02 | 33.76727 | 126.74528 | 6688 ft | 228 kts | 174° |
| 2026-04-29 15:02 | 33.75202 | 126.74729 | 6555 ft | 211 kts | 173° |
| 2026-04-29 15:02 | 33.73794 | 126.74942 | 6373 ft | 198 kts | 175° |
| 2026-04-29 15:02 | 33.72458 | 126.75107 | 6056 ft | 191 kts | 176° |
| 2026-04-29 15:03 | 33.71180 | 126.75269 | 5859 ft | 179 kts | 175° |
| 2026-04-29 15:03 | 33.69947 | 126.75427 | 5506 ft | 180 kts | 174° |
| 2026-04-29 15:03 | 33.68679 | 126.75592 | 5011 ft | 190 kts | 173° |
| 2026-04-29 15:03 | 33.67387 | 126.75760 | 4864 ft | 189 kts | 172° |
| 2026-04-29 15:04 | 33.66051 | 126.75928 | 4632 ft | 197 kts | 175° |
| 2026-04-29 15:04 | 33.64745 | 126.75518 | 4356 ft | 203 kts | 217° |
| 2026-04-29 15:04 | 33.63963 | 126.74122 | 4182 ft | 205 kts | 247° |
| 2026-04-29 15:04 | 33.63277 | 126.72595 | 4025 ft | 206 kts | 237° |
| 2026-04-29 15:05 | 33.62494 | 126.71169 | 3994 ft | 202 kts | 237° |
| 2026-04-29 15:05 | 33.61735 | 126.69745 | 3931 ft | 204 kts | 238° |
| 2026-04-29 15:05 | 33.60984 | 126.68300 | 3667 ft | 206 kts | 238° |
| 2026-04-29 15:05 | 33.60249 | 126.66869 | 3411 ft | 196 kts | 239° |
| 2026-04-29 15:06 | 33.59546 | 126.65499 | 3148 ft | 190 kts | 239° |
| 2026-04-29 15:06 | 33.58859 | 126.64159 | 2931 ft | 185 kts | 239° |
| 2026-04-29 15:06 | 33.58186 | 126.62846 | 2646 ft | 182 kts | 240° |
| 2026-04-29 15:06 | 33.57539 | 126.61586 | 2402 ft | 174 kts | 241° |
| 2026-04-29 15:07 | 33.56928 | 126.60393 | 2156 ft | 162 kts | 242° |
| 2026-04-29 15:07 | 33.56366 | 126.59295 | 1914 ft | 148 kts | 241° |
| 2026-04-29 15:07 | 33.55834 | 126.58255 | 1733 ft | 146 kts | 240° |
| 2026-04-29 15:07 | 33.55322 | 126.57257 | 1532 ft | 139 kts | 239° |
| 2026-04-29 15:08 | 33.54812 | 126.56261 | 1344 ft | 139 kts | 239° |
| 2026-04-29 15:08 | 33.54287 | 126.55279 | 1154 ft | 142 kts | 235° |
| 2026-04-29 15:08 | 33.53758 | 126.54292 | 981 ft | 143 kts | 241° |
| 2026-04-29 15:08 | 33.53287 | 126.53219 | 745 ft | 143 kts | 239° |
| 2026-04-29 15:09 | 33.52775 | 126.52235 | 620 ft | 139 kts | 239° |
| 2026-04-29 15:09 | 33.52273 | 126.51271 | 432 ft | 138 kts | 237° |
| 2026-04-29 15:09 | 33.51757 | 126.50287 | 232 ft | 139 kts | 237° |
| 2026-04-29 15:09 | 33.51276 | 126.49353 | 99 ft | 121 kts | 236° |
| 2026-04-29 15:10 | 33.50892 | 126.48604 | 96 ft | 85 kts | 238° |
| 2026-04-29 15:10 | 33.50665 | 126.48156 | 92 ft | 41 kts | 238° |
| 2026-04-29 15:10 | 33.50475 | 126.47948 | 94 ft | 26 kts | 210° |
| 2026-04-29 15:10 | 33.50392 | 126.48001 | 94 ft | 19 kts | 61° |
| 2026-04-29 15:11 | 33.50460 | 126.48134 | 94 ft | 18 kts | 58° |
| 2026-04-29 15:11 | 33.50525 | 126.48263 | 93 ft | 18 kts | 59° |
| 2026-04-29 15:11 | 33.50588 | 126.48388 | 93 ft | 17 kts | 59° |
| 2026-04-29 15:11 | 33.50656 | 126.48519 | 92 ft | 23 kts | 58° |
| 2026-04-29 15:12 | 33.50756 | 126.48714 | 92 ft | 30 kts | 58° |
| 2026-04-29 15:12 | 33.50774 | 126.48865 | 95 ft | 19 kts | 142° |
| 2026-04-29 15:12 | 33.50716 | 126.48983 | 93 ft | 19 kts | 62° |
| 2026-04-29 15:12 | 33.50774 | 126.49008 | 94 ft | 7 kts | 328° |
| 2026-04-29 15:13 | 33.50796 | 126.48992 | 94 ft | 0 kts | 329° |